Time;durP1;ratioP1;P1;durP2;ratioP2;P2;SDS_P1;SDS_P2;PMS_P1;PMS_P2;Temp;Humidity;BMP_temperature;BMP_pressure;BME280_temperature;BME280_humidity;BME280_pressure;Samples;Min_cycle;Max_cycle;Signal;HPM_P1;HPM_P2
2023/08/09 00:01:56;;;;;;;;;;;;;;;19.45;62.45;100479.06;108137;1255;58983;-70
2023/08/09 00:04:23;;;;;;;;;;;;;;;19.42;62.65;100480.18;108164;1252;72618;-70
2023/08/09 00:06:51;;;;;;;;;;;;;;;19.38;62.88;100483.99;108059;1254;72454;-70
2023/08/09 00:09:20;;;;;;;;;;;;;;;19.31;63.08;100487.62;108114;1254;73886;-69
2023/08/09 00:11:47;;;;;;;;;;;;;;;19.26;63.22;100487.23;108223;1252;61836;-69
2023/08/09 00:14:15;;;;;;;;;;;;;;;19.21;63.43;100485.54;108149;1253;60286;-69
2023/08/09 00:16:42;;;;;;;;;;;;;;;19.14;63.67;100484.13;108025;1254;74280;-69
2023/08/09 00:19:10;;;;;;;;;;;;;;;19.07;63.91;100486.86;108070;1254;72683;-69
2023/08/09 00:21:38;;;;;;;;;;;;;;;19.03;64.13;100490.41;108100;1254;72760;-70
2023/08/09 00:24:08;;;;;;;;;;;;;;;18.99;64.42;100491.04;108169;1253;60453;-70
2023/08/09 00:26:35;;;;;;;;;;;;;;;18.95;64.59;100494.11;108102;1254;62031;-70
2023/08/09 00:29:03;;;;;;;;;;;;;;;18.89;64.72;100492.09;108082;1256;72713;-68
2023/08/09 00:31:31;;;;;;;;;;;;;;;18.84;64.95;100497.65;108097;1256;71928;-68
2023/08/09 00:33:58;;;;;;;;;;;;;;;18.79;65.18;100492.70;108077;1254;73242;-69
2023/08/09 00:36:27;;;;;;;;;;;;;;;18.73;65.38;100495.60;107884;1253;60475;-68
2023/08/09 00:38:54;;;;;;;;;;;;;;;18.69;65.69;100499.98;108118;1253;60320;-68
2023/08/09 00:41:22;;;;;;;;;;;;;;;18.66;65.84;100501.40;108049;1258;74095;-69
2023/08/09 00:43:52;;;;;;;;;;;;;;;18.62;66.00;100501.73;108112;1254;72957;-69
2023/08/09 00:46:22;;;;;;;;;;;;;;;18.58;66.10;100498.32;107784;1254;251487;-69
2023/08/09 00:48:49;;;;;;;;;;;;;;;18.57;66.40;100506.81;108042;1252;60512;-69
2023/08/09 00:51:19;;;;;;;;;;;;;;;18.56;66.45;100513.42;108062;1254;60312;-69
2023/08/09 00:53:47;;;;;;;;;;;;;;;18.54;66.52;100514.50;108045;1256;71498;-69
2023/08/09 00:56:15;;;;;;;;;;;;;;;18.50;66.70;100517.70;108005;1259;72714;-68
2023/08/09 00:58:42;;;;;;;;;;;;;;;18.46;66.76;100514.88;108195;1254;71172;-69
2023/08/09 01:01:10;;;;;;;;;;;;;;;18.45;66.92;100517.82;107986;1254;63135;-69
2023/08/09 01:03:37;;;;;;;;;;;;;;;18.43;67.11;100520.69;108119;1253;60302;-69
2023/08/09 01:06:17;;;;;;;;;;;;;;;18.39;67.29;100522.34;108047;1254;72877;-68
2023/08/09 01:09:03;;;;;;;;;;;;;;;18.37;67.51;100530.65;108106;1257;74488;-69
2023/08/09 01:11:36;;;;;;;;;;;;;;;18.34;67.64;100534.16;108127;1254;71440;-69
2023/08/09 01:14:04;;;;;;;;;;;;;;;18.33;67.70;100534.09;108017;1254;61687;-70
2023/08/09 01:16:32;;;;;;;;;;;;;;;18.28;67.84;100531.92;108051;1254;61171;-70
2023/08/09 01:19:02;;;;;;;;;;;;;;;18.22;67.88;100535.16;108141;1254;76059;-68
2023/08/09 01:21:30;;;;;;;;;;;;;;;18.16;67.96;100541.31;108047;1253;71071;-69
2023/08/09 01:23:57;;;;;;;;;;;;;;;18.12;68.16;100539.36;108060;1252;75335;-69
2023/08/09 01:26:25;;;;;;;;;;;;;;;18.11;68.13;100540.70;108165;1256;60674;-69
2023/08/09 01:28:52;;;;;;;;;;;;;;;18.09;68.32;100541.34;108116;1254;60283;-69
2023/08/09 01:31:20;;;;;;;;;;;;;;;18.07;68.42;100542.41;108137;1254;73979;-69
2023/08/09 01:33:50;;;;;;;;;;;;;;;18.05;68.47;100544.23;108251;1254;71449;-69
2023/08/09 01:36:21;;;;;;;;;;;;;;;18.04;68.58;100548.36;108165;1252;73103;-69
2023/08/09 01:38:56;;;;;;;;;;;;;;;18.03;68.67;100549.48;108225;1254;60818;-69
2023/08/09 01:41:23;;;;;;;;;;;;;;;18.05;68.76;100550.19;108140;1253;62402;-69
2023/08/09 01:43:50;;;;;;;;;;;;;;;18.04;68.96;100551.88;108131;1252;73927;-69
2023/08/09 01:46:18;;;;;;;;;;;;;;;18.01;69.10;100550.09;108059;1253;72841;-69
2023/08/09 01:48:46;;;;;;;;;;;;;;;18.00;69.22;100549.23;108045;1254;72722;-69
2023/08/09 01:51:14;;;;;;;;;;;;;;;17.99;69.33;100553.45;108111;1253;60407;-69
2023/08/09 01:53:41;;;;;;;;;;;;;;;17.99;69.37;100554.65;108079;1254;60322;-68
2023/08/09 01:56:08;;;;;;;;;;;;;;;17.96;69.55;100557.45;108027;1253;73821;-68
2023/08/09 01:58:37;;;;;;;;;;;;;;;17.96;69.59;100560.93;108138;1254;75005;-68
2023/08/09 02:01:04;;;;;;;;;;;;;;;17.94;69.70;100557.98;108044;1254;71075;-68
2023/08/09 02:03:32;;;;;;;;;;;;;;;17.93;69.80;100560.30;108107;1254;61666;-69
2023/08/09 02:06:00;;;;;;;;;;;;;;;17.92;69.86;100562.42;108160;1254;60326;-69
2023/08/09 02:08:27;;;;;;;;;;;;;;;17.93;70.04;100559.99;107998;1254;73822;-69
2023/08/09 02:10:55;;;;;;;;;;;;;;;17.91;70.03;100562.07;108057;1254;72519;-70
2023/08/09 02:13:22;;;;;;;;;;;;;;;17.88;70.19;100566.85;108124;1256;72672;-69
2023/08/09 02:15:50;;;;;;;;;;;;;;;17.86;70.18;100565.33;108046;1252;61825;-69
2023/08/09 02:18:19;;;;;;;;;;;;;;;17.81;70.32;100571.33;108087;1254;59394;-68
2023/08/09 02:20:47;;;;;;;;;;;;;;;17.78;70.44;100577.60;108169;1253;72664;-69
2023/08/09 02:23:15;;;;;;;;;;;;;;;17.75;70.68;100580.24;108150;1256;71423;-68
2023/08/09 02:25:43;;;;;;;;;;;;;;;17.71;70.91;100583.18;108053;1254;71465;-68
2023/08/09 02:28:11;;;;;;;;;;;;;;;17.68;71.10;100584.88;108085;1253;60806;-69
2023/08/09 02:30:40;;;;;;;;;;;;;;;17.67;71.26;100583.88;108201;1254;60299;-69
2023/08/09 02:33:07;;;;;;;;;;;;;;;17.66;71.40;100588.07;108106;1254;72881;-69
2023/08/09 02:35:50;;;;;;;;;;;;;;;17.65;71.41;100592.73;107953;1253;71720;-69
2023/08/09 02:38:18;;;;;;;;;;;;;;;17.64;71.59;100590.91;108127;1252;71812;-68
2023/08/09 02:40:45;;;;;;;;;;;;;;;17.66;71.55;100594.23;108060;1254;61783;-70
2023/08/09 02:43:13;;;;;;;;;;;;;;;17.67;71.60;100596.40;108112;1254;60246;-69
2023/08/09 02:45:40;;;;;;;;;;;;;;;17.68;71.66;100599.47;108169;1254;73205;-68
2023/08/09 02:48:08;;;;;;;;;;;;;;;17.67;71.66;100602.03;108243;1254;72893;-71
2023/08/09 02:50:36;;;;;;;;;;;;;;;17.65;71.63;100604.84;108103;1252;73600;-70
2023/08/09 02:53:04;;;;;;;;;;;;;;;17.64;71.77;100607.82;108053;1257;61804;-69
2023/08/09 02:55:31;;;;;;;;;;;;;;;17.63;71.80;100615.36;108163;1256;60300;-69
2023/08/09 02:58:00;;;;;;;;;;;;;;;17.60;71.86;100618.01;108206;1253;73511;-70
2023/08/09 03:00:27;;;;;;;;;;;;;;;17.57;71.91;100616.06;108249;1254;73040;-70
2023/08/09 03:02:55;;;;;;;;;;;;;;;17.54;72.07;100620.98;108037;1254;72759;-70
2023/08/09 03:05:22;;;;;;;;;;;;;;;17.55;72.13;100621.40;108153;1254;61911;-70
2023/08/09 03:07:51;;;;;;;;;;;;;;;17.60;72.23;100624.64;108245;1254;60683;-70
2023/08/09 03:10:18;;;;;;;;;;;;;;;17.65;72.27;100625.02;108103;1254;73971;-70
2023/08/09 03:12:46;;;;;;;;;;;;;;;17.68;72.28;100627.12;108254;1253;72721;-68
2023/08/09 03:15:15;;;;;;;;;;;;;;;17.67;72.38;100624.82;108076;1253;72957;-69
2023/08/09 03:17:43;;;;;;;;;;;;;;;17.66;72.33;100625.00;108038;1254;64011;-69
2023/08/09 03:20:13;;;;;;;;;;;;;;;17.65;72.36;100625.23;108206;1254;60322;-69
2023/08/09 03:22:41;;;;;;;;;;;;;;;17.66;72.51;100625.50;108109;1254;73918;-70
2023/08/09 03:25:09;;;;;;;;;;;;;;;17.67;72.62;100624.66;108222;1254;75397;-70
2023/08/09 03:27:37;;;;;;;;;;;;;;;17.68;72.72;100625.94;108230;1254;71794;-70
2023/08/09 03:30:06;;;;;;;;;;;;;;;17.71;72.57;100630.97;108320;1253;60162;-69
2023/08/09 03:32:33;;;;;;;;;;;;;;;17.72;72.61;100632.11;108164;1254;60321;-69
2023/08/09 03:35:01;;;;;;;;;;;;;;;17.75;72.53;100634.27;108182;1254;73990;-70
2023/08/09 03:37:29;;;;;;;;;;;;;;;17.78;72.28;100637.39;107976;1259;71637;-70
2023/08/09 03:39:57;;;;;;;;;;;;;;;17.77;72.20;100641.08;108133;1254;72505;-70
2023/08/09 03:42:24;;;;;;;;;;;;;;;17.78;72.18;100642.73;108051;1254;60371;-68
2023/08/09 03:44:52;;;;;;;;;;;;;;;17.81;72.11;100641.03;108277;1253;60344;-69
2023/08/09 03:47:19;;;;;;;;;;;;;;;17.85;71.97;100643.07;108145;1256;72256;-70
2023/08/09 03:49:47;;;;;;;;;;;;;;;17.89;71.84;100644.58;108071;1254;72911;-69
2023/08/09 03:52:14;;;;;;;;;;;;;;;17.96;71.78;100646.16;108046;1257;72748;-69
2023/08/09 03:54:42;;;;;;;;;;;;;;;18.05;71.74;100650.41;108138;1254;61640;-69
2023/08/09 03:57:09;;;;;;;;;;;;;;;18.14;71.47;100653.91;108154;1256;61975;-71
2023/08/09 03:59:37;;;;;;;;;;;;;;;18.22;71.38;100655.11;108260;1254;72411;-71
2023/08/09 04:02:05;;;;;;;;;;;;;;;18.28;70.93;100653.05;108104;1254;71803;-69
2023/08/09 04:04:34;;;;;;;;;;;;;;;18.33;70.57;100652.45;108087;1254;72736;-69
2023/08/09 04:07:02;;;;;;;;;;;;;;;18.39;70.38;100653.90;108134;1254;60751;-70
2023/08/09 04:09:30;;;;;;;;;;;;;;;18.45;70.13;100659.65;108231;1253;59228;-69
2023/08/09 04:11:59;;;;;;;;;;;;;;;18.51;69.93;100658.36;108160;1253;73772;-69
2023/08/09 04:14:27;;;;;;;;;;;;;;;18.56;69.70;100658.73;108211;1257;72991;-70
2023/08/09 04:16:56;;;;;;;;;;;;;;;18.62;69.41;100659.73;108088;1254;72843;-70
2023/08/09 04:19:25;;;;;;;;;;;;;;;18.67;69.06;100661.16;108167;1253;61911;-70
2023/08/09 04:21:53;;;;;;;;;;;;;;;18.71;69.00;100663.02;108158;1254;60559;-68
2023/08/09 04:24:20;;;;;;;;;;;;;;;18.79;68.75;100666.80;108237;1256;72610;-70
2023/08/09 04:26:48;;;;;;;;;;;;;;;18.84;68.41;100668.18;108235;1254;73228;-70
2023/08/09 04:29:15;;;;;;;;;;;;;;;18.91;68.25;100673.20;108028;1254;72264;-72
2023/08/09 04:31:44;;;;;;;;;;;;;;;18.87;68.18;100675.48;108126;1252;60732;-70
2023/08/09 04:34:14;;;;;;;;;;;;;;;18.90;68.28;100681.58;108301;1256;60398;-70
2023/08/09 04:36:42;;;;;;;;;;;;;;;18.97;67.97;100684.52;108258;1256;72684;-70
2023/08/09 04:39:10;;;;;;;;;;;;;;;19.03;67.83;100685.02;108152;1253;71842;-70
2023/08/09 04:41:40;;;;;;;;;;;;;;;19.19;67.15;100684.27;108124;1258;75286;-70
2023/08/09 04:44:07;;;;;;;;;;;;;;;19.26;66.23;100686.80;108207;1254;61816;-71
2023/08/09 04:46:35;;;;;;;;;;;;;;;19.30;66.05;100689.90;108192;1254;60308;-70
2023/08/09 04:49:03;;;;;;;;;;;;;;;19.32;65.56;100693.26;108150;1254;72897;-69
2023/08/09 04:51:30;;;;;;;;;;;;;;;19.36;65.18;100689.77;108100;1254;71565;-69
2023/08/09 04:53:58;;;;;;;;;;;;;;;19.39;64.82;100693.55;108201;1255;72737;-69
2023/08/09 04:56:25;;;;;;;;;;;;;;;19.41;64.68;100693.65;108514;1252;61655;-69
2023/08/09 04:58:53;;;;;;;;;;;;;;;19.47;64.58;100692.20;108204;1254;62053;-69
2023/08/09 05:01:20;;;;;;;;;;;;;;;19.55;64.30;100692.08;108153;1254;72657;-69
2023/08/09 05:03:48;;;;;;;;;;;;;;;19.64;64.22;100697.86;108052;1257;73277;-69
2023/08/09 05:06:17;;;;;;;;;;;;;;;19.76;63.89;100694.67;108210;1255;71455;-69
2023/08/09 05:08:44;;;;;;;;;;;;;;;19.87;63.50;100686.95;108047;1257;63159;-70
2023/08/09 05:11:15;;;;;;;;;;;;;;;20.00;63.33;100682.13;108098;1255;59445;-70
2023/08/09 05:13:44;;;;;;;;;;;;;;;20.13;62.89;100687.05;108208;1254;73024;-70
2023/08/09 05:16:24;;;;;;;;;;;;;;;20.24;62.55;100690.34;108124;1254;72069;-70
2023/08/09 05:18:52;;;;;;;;;;;;;;;20.36;62.22;100697.69;108054;1257;74878;-70
2023/08/09 05:21:20;;;;;;;;;;;;;;;20.47;61.84;100694.41;108052;1254;60178;-70
2023/08/09 05:23:47;;;;;;;;;;;;;;;20.58;61.36;100696.98;108032;1254;60213;-69
2023/08/09 05:26:15;;;;;;;;;;;;;;;20.63;60.50;100698.70;108189;1254;76044;-70
2023/08/09 05:28:43;;;;;;;;;;;;;;;20.67;60.15;100695.69;107991;1254;72823;-71
2023/08/09 05:31:10;;;;;;;;;;;;;;;20.71;59.42;100694.80;108002;1254;71447;-71
2023/08/09 05:33:38;;;;;;;;;;;;;;;20.77;59.11;100696.02;108081;1253;61110;-71
2023/08/09 05:36:05;;;;;;;;;;;;;;;20.87;59.09;100695.23;107974;1257;59635;-71
2023/08/09 05:38:33;;;;;;;;;;;;;;;21.00;58.74;100697.16;108133;1253;74415;-72
2023/08/09 05:41:01;;;;;;;;;;;;;;;21.06;58.21;100694.17;108077;1256;70928;-70
2023/08/09 05:43:28;;;;;;;;;;;;;;;21.11;58.03;100698.30;108036;1254;72436;-69
2023/08/09 05:45:56;;;;;;;;;;;;;;;21.20;57.85;100699.78;108035;1255;63780;-70
2023/08/09 05:48:23;;;;;;;;;;;;;;;21.29;57.44;100702.82;108030;1254;60329;-69
2023/08/09 05:50:50;;;;;;;;;;;;;;;21.39;57.49;100707.35;108052;1254;72654;-70
2023/08/09 05:53:18;;;;;;;;;;;;;;;21.50;56.96;100706.92;108058;1257;71576;-70
2023/08/09 05:55:46;;;;;;;;;;;;;;;21.62;56.46;100711.59;108070;1254;73664;-70
2023/08/09 05:58:16;;;;;;;;;;;;;;;21.70;56.03;100710.69;108021;1257;60443;-70
2023/08/09 06:00:44;;;;;;;;;;;;;;;21.80;55.84;100713.59;108014;1254;60601;-70
2023/08/09 06:03:12;;;;;;;;;;;;;;;21.88;54.99;100713.41;108051;1254;72817;-71
2023/08/09 06:05:40;;;;;;;;;;;;;;;21.94;54.15;100711.55;107943;1253;72740;-70
2023/08/09 06:08:08;;;;;;;;;;;;;;;22.02;53.80;100712.02;108075;1253;71727;-70
2023/08/09 06:10:35;;;;;;;;;;;;;;;22.09;52.63;100707.60;108094;1256;60446;-70
2023/08/09 06:13:03;;;;;;;;;;;;;;;22.14;50.75;100709.21;108051;1254;60229;-70
2023/08/09 06:15:30;;;;;;;;;;;;;;;22.19;48.51;100709.04;108045;1254;73986;-71
2023/08/09 06:17:58;;;;;;;;;;;;;;;22.22;47.58;100711.79;108083;1256;72912;-70
2023/08/09 06:20:27;;;;;;;;;;;;;;;22.26;46.74;100712.31;107968;1253;72801;-71
2023/08/09 06:22:55;;;;;;;;;;;;;;;22.30;46.18;100709.88;108054;1254;60440;-71
2023/08/09 06:25:23;;;;;;;;;;;;;;;22.34;45.57;100713.09;108184;1254;59204;-70
2023/08/09 06:27:51;;;;;;;;;;;;;;;22.38;45.07;100712.89;108067;1255;73919;-71
2023/08/09 06:30:18;;;;;;;;;;;;;;;22.43;44.42;100714.27;108006;1254;73088;-68
2023/08/09 06:32:48;;;;;;;;;;;;;;;22.51;43.80;100717.05;108157;1255;71560;-69
2023/08/09 06:35:15;;;;;;;;;;;;;;;22.59;43.29;100713.54;107917;1257;59869;-69
2023/08/09 06:37:43;;;;;;;;;;;;;;;22.67;42.91;100716.67;107957;1253;60536;-69
2023/08/09 06:40:11;;;;;;;;;;;;;;;22.71;42.61;100710.45;108004;1257;74334;-69
2023/08/09 06:42:38;;;;;;;;;;;;;;;22.77;42.88;100713.15;107930;1255;71692;-70
2023/08/09 06:45:08;;;;;;;;;;;;;;;22.88;42.83;100715.09;107960;1254;74403;-71
2023/08/09 06:47:35;;;;;;;;;;;;;;;22.97;42.09;100715.45;107890;1259;60336;-70
2023/08/09 06:50:07;;;;;;;;;;;;;;;23.04;41.12;100714.89;108064;1254;60462;-70
2023/08/09 06:52:36;;;;;;;;;;;;;;;23.10;41.17;100707.48;108113;1254;73214;-70
2023/08/09 06:55:07;;;;;;;;;;;;;;;23.18;41.33;100711.17;108152;1254;72943;-69
2023/08/09 06:57:35;;;;;;;;;;;;;;;23.27;41.07;100713.95;108066;1257;72785;-70
2023/08/09 07:00:04;;;;;;;;;;;;;;;23.35;41.17;100714.91;107972;1255;60480;-68
2023/08/09 07:02:32;;;;;;;;;;;;;;;23.44;40.64;100716.29;108047;1253;60029;-69
2023/08/09 07:05:01;;;;;;;;;;;;;;;23.48;40.00;100715.73;107968;1253;72614;-69
2023/08/09 07:07:28;;;;;;;;;;;;;;;23.42;40.61;100715.77;108142;1254;72733;-70
2023/08/09 07:09:58;;;;;;;;;;;;;;;23.39;39.80;100716.74;108049;1257;73164;-69
2023/08/09 07:12:27;;;;;;;;;;;;;;;23.40;39.36;100718.52;108118;1254;60455;-70
2023/08/09 07:14:55;;;;;;;;;;;;;;;23.44;39.78;100717.67;107977;1254;60408;-70
2023/08/09 07:17:23;;;;;;;;;;;;;;;23.52;40.08;100720.05;108074;1253;73119;-70
2023/08/09 07:19:50;;;;;;;;;;;;;;;23.61;39.55;100721.73;108027;1257;72053;-70
2023/08/09 07:22:18;;;;;;;;;;;;;;;23.66;39.17;100722.29;108056;1254;73162;-70
2023/08/09 07:24:45;;;;;;;;;;;;;;;23.70;39.41;100724.01;108015;1254;60456;-69
2023/08/09 07:27:13;;;;;;;;;;;;;;;23.80;39.53;100722.69;108032;1254;59049;-70
2023/08/09 07:29:41;;;;;;;;;;;;;;;23.84;39.91;100723.52;107986;1257;72522;-70
2023/08/09 07:32:08;;;;;;;;;;;;;;;23.89;39.94;100726.02;108098;1254;72485;-70
2023/08/09 07:34:36;;;;;;;;;;;;;;;23.96;39.13;100722.02;107940;1257;72799;-70
2023/08/09 07:37:04;;;;;;;;;;;;;;;24.01;38.79;100723.01;108004;1254;62270;-70
2023/08/09 07:39:31;;;;;;;;;;;;;;;24.01;38.62;100719.67;107991;1255;60981;-70
2023/08/09 07:41:58;;;;;;;;;;;;;;;24.01;38.59;100722.63;108044;1256;73941;-70
2023/08/09 07:44:27;;;;;;;;;;;;;;;24.01;38.60;100724.27;108115;1253;75014;-69
2023/08/09 07:46:54;;;;;;;;;;;;;;;24.07;38.82;100723.44;108067;1253;72509;-70
2023/08/09 07:49:22;;;;;;;;;;;;;;;24.18;39.17;100730.53;108046;1257;59476;-69
2023/08/09 07:51:49;;;;;;;;;;;;;;;24.28;38.29;100726.84;108094;1254;60746;-69
2023/08/09 07:54:17;;;;;;;;;;;;;;;24.31;37.85;100729.84;107986;1254;73999;-69
2023/08/09 07:56:45;;;;;;;;;;;;;;;24.35;37.76;100731.52;108006;1254;71679;-69
2023/08/09 07:59:12;;;;;;;;;;;;;;;24.39;37.92;100735.43;108015;1254;71620;-71
2023/08/09 08:01:40;;;;;;;;;;;;;;;24.39;37.90;100737.01;108077;1254;60456;-72
2023/08/09 08:04:08;;;;;;;;;;;;;;;24.39;37.90;100731.00;108111;1253;60466;-71
2023/08/09 08:06:35;;;;;;;;;;;;;;;24.42;37.97;100736.11;108112;1253;76130;-69
2023/08/09 08:09:04;;;;;;;;;;;;;;;24.44;37.87;100729.43;108050;1255;71562;-69
2023/08/09 08:11:32;;;;;;;;;;;;;;;24.47;37.87;100724.16;108061;1254;74050;-70
2023/08/09 08:13:59;;;;;;;;;;;;;;;24.54;37.78;100725.22;108034;1254;60177;-70
2023/08/09 08:16:27;;;;;;;;;;;;;;;24.58;36.91;100730.24;108154;1254;59939;-70
2023/08/09 08:18:55;;;;;;;;;;;;;;;24.62;36.77;100727.98;108027;1257;73860;-70
2023/08/09 08:21:22;;;;;;;;;;;;;;;24.68;36.58;100732.38;108056;1254;72294;-70
2023/08/09 08:23:50;;;;;;;;;;;;;;;24.71;35.80;100731.67;108076;1254;72687;-70
2023/08/09 08:26:18;;;;;;;;;;;;;;;24.75;36.27;100731.34;108143;1254;60631;-70
2023/08/09 08:28:46;;;;;;;;;;;;;;;24.85;35.78;100731.89;108016;1254;62039;-70
2023/08/09 08:31:19;;;;;;;;;;;;;;;24.93;35.32;100727.30;108011;1253;74357;-70
2023/08/09 08:33:49;;;;;;;;;;;;;;;25.03;35.53;100725.27;108121;1257;73029;-70
2023/08/09 08:36:16;;;;;;;;;;;;;;;25.14;35.28;100723.64;107919;1254;73656;-70
2023/08/09 08:38:47;;;;;;;;;;;;;;;25.24;35.61;100725.30;107978;1254;60322;-70
2023/08/09 08:41:15;;;;;;;;;;;;;;;25.32;35.66;100725.73;107979;1256;60505;-71
2023/08/09 08:43:44;;;;;;;;;;;;;;;25.38;34.83;100729.55;107943;1254;73871;-71
2023/08/09 08:46:14;;;;;;;;;;;;;;;25.30;34.09;100731.48;107982;1254;73066;-69
2023/08/09 08:48:42;;;;;;;;;;;;;;;25.20;34.77;100729.33;108014;1253;72792;-70
2023/08/09 08:51:10;;;;;;;;;;;;;;;25.19;34.78;100730.88;107949;1253;60396;-70
2023/08/09 08:53:37;;;;;;;;;;;;;;;25.25;34.88;100730.55;107958;1252;59156;-70
2023/08/09 08:56:05;;;;;;;;;;;;;;;25.32;34.54;100729.95;108035;1254;73969;-70
2023/08/09 08:58:33;;;;;;;;;;;;;;;25.36;34.00;100729.52;107993;1254;72915;-70
2023/08/09 09:01:00;;;;;;;;;;;;;;;25.38;33.90;100731.77;107999;1254;71495;-70
2023/08/09 09:03:28;;;;;;;;;;;;;;;25.44;34.20;100726.58;107940;1254;60305;-70
2023/08/09 09:05:55;;;;;;;;;;;;;;;25.50;34.27;100730.55;107953;1254;60493;-70
2023/08/09 09:08:23;;;;;;;;;;;;;;;25.55;33.43;100728.33;107947;1254;72591;-71
2023/08/09 09:10:54;;;;;;;;;;;;;;;25.52;33.54;100729.20;107943;1254;73123;-70
2023/08/09 09:13:25;;;;;;;;;;;;;;;25.49;33.54;100732.56;108023;1254;71247;-70
2023/08/09 09:15:54;;;;;;;;;;;;;;;25.58;33.64;100729.95;108630;1254;60192;-70
2023/08/09 09:18:21;;;;;;;;;;;;;;;25.73;33.59;100729.71;108008;1257;60345;-70
2023/08/09 09:20:49;;;;;;;;;;;;;;;25.90;32.72;100731.92;107905;1254;72653;-71
2023/08/09 09:23:23;;;;;;;;;;;;;;;26.04;32.03;100738.21;108100;1254;72837;-69
2023/08/09 09:26:08;;;;;;;;;;;;;;;26.13;32.17;100737.10;108047;1254;72791;-71
2023/08/09 09:28:38;;;;;;;;;;;;;;;26.24;32.31;100738.27;108128;1253;60722;-71
2023/08/09 09:31:06;;;;;;;;;;;;;;;26.36;32.77;100740.10;107946;1254;60581;-69
2023/08/09 09:33:34;;;;;;;;;;;;;;;26.39;32.23;100744.38;108305;1257;74520;-69
2023/08/09 09:36:02;;;;;;;;;;;;;;;26.37;31.36;100735.41;108023;1253;73085;-68
2023/08/09 09:38:30;;;;;;;;;;;;;;;26.41;31.21;100733.40;107991;1253;74740;-68
2023/08/09 09:40:57;;;;;;;;;;;;;;;26.39;30.97;100728.42;107896;1254;60091;-69
2023/08/09 09:43:32;;;;;;;;;;;;;;;26.32;31.08;100726.16;107601;1254;60278;-69
2023/08/09 09:46:00;;;;;;;;;;;;;;;26.27;31.71;100725.21;107734;1256;74325;-70
2023/08/09 09:48:29;;;;;;;;;;;;;;;26.31;31.64;100723.95;108001;1253;71945;-69
2023/08/09 09:51:02;;;;;;;;;;;;;;;26.37;31.54;100719.53;107820;1254;75278;-69
2023/08/09 09:53:30;;;;;;;;;;;;;;;26.43;31.64;100724.66;107840;1254;60312;-73
2023/08/09 09:55:57;;;;;;;;;;;;;;;26.47;31.24;100724.92;107788;1254;61500;-73
2023/08/09 09:58:25;;;;;;;;;;;;;;;26.53;31.17;100721.14;107622;1259;74827;-72
2023/08/09 10:00:53;;;;;;;;;;;;;;;26.61;31.50;100723.24;108125;1254;72028;-75
2023/08/09 10:03:21;;;;;;;;;;;;;;;26.67;32.21;100722.82;107613;1253;73086;-72
2023/08/09 10:05:49;;;;;;;;;;;;;;;26.71;32.05;100722.52;107837;1253;62187;-75
2023/08/09 10:08:19;;;;;;;;;;;;;;;26.75;32.26;100722.34;107778;1254;60312;-76
2023/08/09 10:10:47;;;;;;;;;;;;;;;26.62;31.50;100720.06;107752;1253;72644;-75
2023/08/09 10:13:16;;;;;;;;;;;;;;;26.47;31.62;100719.05;107631;1254;72849;-73
2023/08/09 10:15:46;;;;;;;;;;;;;;;26.43;31.35;100716.92;107782;1254;70753;-70
2023/08/09 10:18:18;;;;;;;;;;;;;;;26.45;31.33;100714.14;107782;1252;60296;-75
2023/08/09 10:20:50;;;;;;;;;;;;;;;26.50;31.52;100710.59;108740;1254;59893;-73
2023/08/09 10:23:19;;;;;;;;;;;;;;;26.56;31.26;100712.20;107775;1256;73156;-73
2023/08/09 10:25:46;;;;;;;;;;;;;;;26.69;31.78;100715.27;107911;1254;72285;-74
2023/08/09 10:28:14;;;;;;;;;;;;;;;26.79;31.45;100716.15;107709;1254;73950;-74
2023/08/09 10:30:43;;;;;;;;;;;;;;;26.86;30.26;100718.41;107899;1257;60894;-73
2023/08/09 10:33:21;;;;;;;;;;;;;;;26.91;29.85;100713.31;80927;1254;10002670;-74
2023/08/09 10:35:48;;;;;;;;;;;;;;;26.95;30.80;100716.69;107746;1254;74044;-74
2023/08/09 10:38:17;;;;;;;;;;;;;;;26.89;30.80;100718.14;107786;1258;72035;-75
2023/08/09 10:40:50;;;;;;;;;;;;;;;26.79;30.79;100724.05;108421;1254;70546;-74
2023/08/09 10:43:18;;;;;;;;;;;;;;;26.79;30.59;100713.33;107837;1257;60485;-74
2023/08/09 10:45:46;;;;;;;;;;;;;;;27.25;29.83;100708.98;107759;1254;60460;-74
2023/08/09 10:48:23;;;;;;;;;;;;;;;27.05;30.11;100712.71;107785;1254;74476;-75
2023/08/09 10:51:00;;;;;;;;;;;;;;;26.99;30.42;100709.63;107757;1254;71728;-74
2023/08/09 10:53:28;;;;;;;;;;;;;;;27.03;30.09;100711.26;107751;1260;73119;-75
2023/08/09 10:55:57;;;;;;;;;;;;;;;27.03;29.66;100710.18;108471;1254;62164;-75
2023/08/09 10:58:28;;;;;;;;;;;;;;;26.98;30.29;100702.39;108254;1254;60443;-75
2023/08/09 11:00:56;;;;;;;;;;;;;;;27.12;29.89;100712.44;107694;1254;75909;-72
2023/08/09 11:03:24;;;;;;;;;;;;;;;27.09;29.72;100708.94;107674;1258;72342;-71
2023/08/09 11:05:52;;;;;;;;;;;;;;;27.00;29.73;100710.20;108300;1254;73074;-72
2023/08/09 11:08:20;;;;;;;;;;;;;;;26.90;29.61;100710.80;108119;1253;60458;-70
2023/08/09 11:10:48;;;;;;;;;;;;;;;26.85;29.97;100707.48;107822;1254;61751;-70
2023/08/09 11:13:16;;;;;;;;;;;;;;;26.99;30.35;100707.27;108021;1254;76153;-70
2023/08/09 11:15:47;;;;;;;;;;;;;;;26.97;30.80;100713.66;108057;1253;75024;-72
2023/08/09 11:18:15;;;;;;;;;;;;;;;26.95;30.66;100710.64;108061;1253;72714;-70
2023/08/09 11:20:43;;;;;;;;;;;;;;;26.96;30.71;100711.77;108063;1254;62416;-70
2023/08/09 11:23:11;;;;;;;;;;;;;;;27.01;30.53;100709.82;108011;1254;60296;-71
2023/08/09 11:25:41;;;;;;;;;;;;;;;27.26;29.61;100706.52;108137;1253;74536;-72
2023/08/09 11:28:11;;;;;;;;;;;;;;;27.41;29.54;100708.08;107912;1254;71440;-72
2023/08/09 11:30:38;;;;;;;;;;;;;;;27.46;29.49;100708.16;108031;1253;75169;-71
2023/08/09 11:33:06;;;;;;;;;;;;;;;27.41;28.80;100708.70;108037;1254;60527;-71
2023/08/09 11:35:43;;;;;;;;;;;;;;;27.31;28.50;100701.18;108013;1253;60357;-71
2023/08/09 11:38:13;;;;;;;;;;;;;;;27.31;28.81;100701.97;107981;1252;74243;-71
2023/08/09 11:40:45;;;;;;;;;;;;;;;27.29;28.74;100708.45;108013;1254;73063;-71
2023/08/09 11:43:15;;;;;;;;;;;;;;;27.20;28.78;100709.23;108114;1254;74768;-71
2023/08/09 11:45:52;;;;;;;;;;;;;;;27.17;29.04;100707.22;107942;1254;62298;-70
2023/08/09 11:48:28;;;;;;;;;;;;;;;27.17;28.20;100703.95;108007;1252;61786;-70
2023/08/09 11:51:02;;;;;;;;;;;;;;;27.17;28.50;100701.11;108132;1253;73847;-72
2023/08/09 11:53:31;;;;;;;;;;;;;;;27.20;28.17;100699.67;108000;1253;72706;-72
2023/08/09 11:55:59;;;;;;;;;;;;;;;27.27;27.81;100693.30;108358;1253;74852;-71
2023/08/09 11:58:26;;;;;;;;;;;;;;;27.46;27.90;100693.98;108145;1253;60334;-70
2023/08/09 12:00:54;;;;;;;;;;;;;;;27.60;28.43;100695.37;108284;1253;61897;-72
2023/08/09 12:03:22;;;;;;;;;;;;;;;27.67;28.00;100697.42;108069;1253;72231;-70
2023/08/09 12:05:53;;;;;;;;;;;;;;;27.64;28.01;100695.11;108083;1253;72757;-70
2023/08/09 12:08:33;;;;;;;;;;;;;;;27.61;28.76;100695.15;107998;1254;72335;-70
2023/08/09 12:11:00;;;;;;;;;;;;;;;27.57;28.63;100694.30;108139;1254;60533;-70
2023/08/09 12:13:28;;;;;;;;;;;;;;;27.52;28.38;100699.80;107980;1253;60454;-70
2023/08/09 12:15:58;;;;;;;;;;;;;;;27.49;28.71;100699.82;108034;1256;73768;-70
2023/08/09 12:18:26;;;;;;;;;;;;;;;27.44;29.03;100702.33;108059;1254;72875;-71
2023/08/09 12:20:54;;;;;;;;;;;;;;;27.45;28.53;100706.80;107980;1254;71442;-72
2023/08/09 12:23:21;;;;;;;;;;;;;;;27.50;27.86;100705.09;107969;1256;60486;-70
2023/08/09 12:25:49;;;;;;;;;;;;;;;27.57;28.60;100704.19;108077;1254;60522;-70
2023/08/09 12:28:16;;;;;;;;;;;;;;;27.65;27.94;100705.24;108071;1254;63973;-71
2023/08/09 12:30:45;;;;;;;;;;;;;;;27.76;27.50;100702.37;109278;1252;63800;-71
2023/08/09 12:33:13;;;;;;;;;;;;;;;27.88;27.38;100701.20;108244;1254;63826;-71